Redstone Arsenal, Alabama
Current Conditions -  °F | °C
As of 4:58 PM on Saturday 22 Nov 2014 (Local Time) from KHUA Reporting Station
Clear Clear  
Wind Chill: 57°   Ceiling: Unl
Heat Index: 57°   Visibility: 10mi
Dew Point: 39°   Wind: 6mph
Humidity: 51%   Direction: 120°ESE
Pressure: 30.15"   Gusts: NA
Location:  34.6546°N, 86.6455°W
Report Text: KHUA 222258Z AUTO 12005KT 10SM CLR 14/04 A3015 RMK AO2 SLP212 T01400039
Loading
Personal Weather Stations






























Interactive Weather Map New forecast layout! Learn more

10-Day Weather Forecast

Advertisements
Track Severe Weather on mobile